Time;durP1;ratioP1;P1;durP2;ratioP2;P2;SDS_P1;SDS_P2;PMS_P1;PMS_P2;Temp;Humidity;BMP_temperature;BMP_pressure;BME280_temperature;BME280_humidity;BME280_pressure;Samples;Min_cycle;Max_cycle;Signal;HPM_P1;HPM_P2
2023/03/19 00:02:08;;;;;;;21.55;17.25;;;9.40;99.90;;;;;;5096946;27;20070;-82
2023/03/19 00:04:34;;;;;;;19.17;16.85;;;9.40;99.90;;;;;;5108518;27;20126;-83
2023/03/19 00:07:00;;;;;;;21.58;17.98;;;9.40;99.90;;;;;;5107968;27;20142;-83
2023/03/19 00:09:26;;;;;;;23.60;17.58;;;9.40;99.90;;;;;;5091798;27;20043;-83
2023/03/19 00:11:52;;;;;;;22.63;17.60;;;9.40;99.90;;;;;;5091786;27;20123;-83
2023/03/19 00:14:17;;;;;;;22.40;17.73;;;9.40;99.90;;;;;;5110206;27;20145;-83
2023/03/19 00:16:43;;;;;;;21.15;17.83;;;9.50;99.90;;;;;;5092363;27;20082;-82
2023/03/19 00:19:09;;;;;;;22.08;17.83;;;9.60;99.90;;;;;;5092347;28;20105;-83
2023/03/19 00:21:35;;;;;;;23.00;17.40;;;9.50;99.90;;;;;;5109801;27;20039;-82
2023/03/19 00:24:01;;;;;;;21.38;17.65;;;9.50;99.90;;;;;;5109489;27;20528;-83
2023/03/19 00:26:28;;;;;;;21.70;17.05;;;9.50;99.90;;;;;;5109735;27;20050;-83
2023/03/19 00:28:54;;;;;;;22.77;17.15;;;9.50;99.90;;;;;;5127621;27;20039;-83
2023/03/19 00:31:20;;;;;;;22.38;17.30;;;9.50;99.90;;;;;;5109256;28;20510;-83
2023/03/19 00:33:46;;;;;;;22.55;17.98;;;9.50;99.90;;;;;;5108311;28;20202;-83
2023/03/19 00:36:12;;;;;;;22.70;17.80;;;9.60;99.90;;;;;;5092096;28;20117;-83
2023/03/19 00:38:38;;;;;;;22.58;18.20;;;9.50;99.90;;;;;;5108556;28;20051;-83
2023/03/19 00:41:05;;;;;;;22.73;17.75;;;9.60;99.90;;;;;;5109325;28;20035;-83
2023/03/19 00:43:31;;;;;;;23.90;17.58;;;9.60;99.90;;;;;;5126996;27;20047;-82
2023/03/19 00:45:57;;;;;;;25.15;17.60;;;9.60;99.90;;;;;;5108429;28;20050;-82
2023/03/19 00:48:22;;;;;;;23.83;17.83;;;9.60;99.90;;;;;;5109495;28;20039;-82
2023/03/19 00:50:48;;;;;;;20.75;16.55;;;9.60;99.90;;;;;;5109622;28;20043;-83
2023/03/19 00:53:15;;;;;;;22.95;16.45;;;9.70;99.90;;;;;;5109215;28;20094;-82
2023/03/19 00:55:40;;;;;;;19.60;16.25;;;9.70;99.90;;;;;;5107215;28;20043;-83
2023/03/19 00:58:06;;;;;;;21.35;16.17;;;9.70;99.90;;;;;;5109248;28;20031;-83
2023/03/19 01:00:33;;;;;;;20.00;15.80;;;9.70;99.90;;;;;;5109128;28;20192;-82
2023/03/19 01:02:59;;;;;;;18.40;15.23;;;9.70;99.90;;;;;;5109963;28;20509;-83
2023/03/19 01:05:25;;;;;;;18.90;14.35;;;9.80;99.90;;;;;;5110298;28;20050;-83
2023/03/19 01:07:51;;;;;;;17.88;14.60;;;10.00;99.90;;;;;;5109960;28;20039;-83
2023/03/19 01:10:21;;;;;;;16.45;14.48;;;9.80;99.90;;;;;;5109384;28;20488;-83
2023/03/19 01:12:47;;;;;;;16.52;13.77;;;9.80;99.90;;;;;;5111153;27;20050;-83
2023/03/19 01:15:16;;;;;;;15.20;13.40;;;9.90;99.90;;;;;;5094512;27;20552;-83
2023/03/19 01:17:41;;;;;;;15.77;12.88;;;9.90;99.90;;;;;;5111956;27;20116;-83
2023/03/19 01:20:11;;;;;;;15.32;12.70;;;9.90;99.90;;;;;;5112583;27;20051;-83
2023/03/19 01:22:42;;;;;;;16.58;13.55;;;9.90;99.90;;;;;;5094689;27;20046;-84
2023/03/19 01:25:11;;;;;;;14.50;11.85;;;10.00;99.90;;;;;;5113364;27;20089;-84
2023/03/19 01:27:37;;;;;;;15.13;12.30;;;10.00;99.90;;;;;;5112559;27;20054;-84
2023/03/19 01:30:03;;;;;;;12.88;11.07;;;10.00;99.90;;;;;;5113291;27;20413;-84
2023/03/19 01:32:28;;;;;;;14.80;10.07;;;10.00;99.90;;;;;;5112739;27;20375;-83
2023/03/19 01:34:54;;;;;;;11.95;9.63;;;10.10;99.90;;;;;;5112296;27;20046;-83
2023/03/19 01:37:20;;;;;;;10.75;9.23;;;10.00;99.90;;;;;;5095638;27;20043;-83
2023/03/19 01:39:46;;;;;;;11.63;10.25;;;9.90;99.90;;;;;;5112791;27;20456;-83
2023/03/19 01:42:12;;;;;;;13.60;10.10;;;9.90;99.90;;;;;;5112499;27;20474;-83
2023/03/19 01:44:39;;;;;;;11.65;9.35;;;9.90;99.90;;;;;;5112838;27;20042;-83
2023/03/19 01:47:14;;;;;;;14.02;10.30;;;9.90;99.90;;;;;;5112640;27;20043;-83
2023/03/19 01:49:40;;;;;;;13.63;10.07;;;9.90;99.90;;;;;;5112357;27;20047;-83
2023/03/19 01:52:07;;;;;;;12.23;10.68;;;9.90;99.90;;;;;;5112788;27;20043;-83
2023/03/19 01:54:35;;;;;;;13.88;11.63;;;9.90;99.90;;;;;;5112293;27;20047;-83
2023/03/19 01:57:11;;;;;;;13.60;11.25;;;9.80;99.90;;;;;;5113418;27;20104;-83
2023/03/19 01:59:41;;;;;;;13.48;11.45;;;9.90;99.90;;;;;;5112065;27;20074;-83
2023/03/19 02:02:16;;;;;;;13.07;10.98;;;9.80;99.90;;;;;;5112523;27;20069;-83
2023/03/19 02:04:43;;;;;;;12.48;11.18;;;9.80;99.90;;;;;;5112733;27;20085;-83
2023/03/19 02:07:10;;;;;;;12.93;10.43;;;9.80;99.90;;;;;;5111296;27;20051;-83
2023/03/19 02:09:36;;;;;;;14.63;11.18;;;9.80;99.90;;;;;;5128927;27;20401;-82
2023/03/19 02:12:02;;;;;;;16.30;11.45;;;9.70;99.90;;;;;;5095819;27;20057;-83
2023/03/19 02:14:27;;;;;;;13.48;10.40;;;9.70;99.90;;;;;;5094657;27;20039;-83
2023/03/19 02:16:54;;;;;;;16.33;11.50;;;9.70;99.90;;;;;;5111673;27;20065;-83
2023/03/19 02:19:36;;;;;;;14.07;11.55;;;9.30;99.90;;;;;;5095474;27;20047;-83
2023/03/19 02:22:03;;;;;;;13.73;11.65;;;9.60;99.90;;;;;;5128364;27;20051;-83
2023/03/19 02:24:34;;;;;;;14.30;10.77;;;10.20;99.90;;;;;;5111631;27;20062;-83
2023/03/19 02:27:00;;;;;;;18.23;12.30;;;9.60;99.90;;;;;;5128665;27;20047;-83
2023/03/19 02:29:26;;;;;;;13.32;10.77;;;9.50;99.90;;;;;;5112224;27;20043;-83
2023/03/19 02:31:52;;;;;;;12.13;10.18;;;9.50;99.90;;;;;;5111375;27;20058;-83
2023/03/19 02:34:20;;;;;;;13.68;11.07;;;9.40;99.90;;;;;;5109634;27;20050;-83
2023/03/19 02:37:09;;;;;;;12.95;11.10;;;9.40;99.90;;;;;;5107797;27;20084;-82
2023/03/19 02:39:38;;;;;;;13.55;11.73;;;9.40;99.90;;;;;;5110857;27;20397;-83
2023/03/19 02:42:05;;;;;;;17.52;12.50;;;9.40;99.90;;;;;;5110884;27;20043;-83
2023/03/19 02:44:31;;;;;;;14.70;12.50;;;9.40;99.90;;;;;;5129610;27;20054;-83
2023/03/19 02:46:56;;;;;;;16.50;13.30;;;9.40;99.90;;;;;;5111392;27;20035;-83
2023/03/19 02:49:22;;;;;;;14.75;12.32;;;9.40;99.90;;;;;;5111532;27;20541;-83
2023/03/19 02:51:48;;;;;;;17.95;12.93;;;9.40;99.90;;;;;;5111394;27;20058;-82
2023/03/19 02:54:13;;;;;;;15.13;12.38;;;9.40;99.90;;;;;;5111468;27;20070;-83
2023/03/19 02:56:39;;;;;;;14.50;12.63;;;9.40;99.90;;;;;;5111523;27;20053;-83
2023/03/19 02:59:05;;;;;;;16.15;13.05;;;9.40;99.90;;;;;;5094220;27;20389;-83
2023/03/19 03:01:31;;;;;;;15.45;12.82;;;9.40;99.90;;;;;;5110231;27;20090;-82
2023/03/19 03:03:56;;;;;;;17.48;12.90;;;9.30;99.90;;;;;;5111515;27;20043;-83
2023/03/19 03:06:22;;;;;;;14.75;12.82;;;9.30;99.90;;;;;;5095295;27;20054;-83
2023/03/19 03:08:48;;;;;;;15.02;12.40;;;9.30;99.90;;;;;;5092804;27;20043;-83
2023/03/19 03:11:13;;;;;;;15.05;12.73;;;9.20;99.90;;;;;;5110982;27;20050;-83
2023/03/19 03:13:39;;;;;;;15.13;11.93;;;9.20;99.90;;;;;;5129097;27;20039;-83
2023/03/19 03:16:05;;;;;;;16.95;12.18;;;9.20;99.90;;;;;;5110985;27;20050;-83
2023/03/19 03:18:31;;;;;;;13.82;12.25;;;9.20;99.90;;;;;;5129009;27;20054;-83
2023/03/19 03:20:57;;;;;;;15.00;12.63;;;9.20;99.90;;;;;;5092805;27;20107;-83
2023/03/19 03:23:22;;;;;;;19.05;13.02;;;9.10;99.90;;;;;;5128847;27;20043;-83
2023/03/19 03:25:51;;;;;;;15.13;12.50;;;9.10;99.90;;;;;;5111158;27;20413;-83
2023/03/19 03:28:17;;;;;;;14.90;12.10;;;9.10;99.90;;;;;;5128576;27;20079;-83
2023/03/19 03:30:44;;;;;;;15.80;12.27;;;9.10;99.90;;;;;;5110289;27;20051;-83
2023/03/19 03:33:09;;;;;;;15.57;11.85;;;9.10;99.90;;;;;;5129354;27;20430;-83
2023/03/19 03:35:35;;;;;;;14.35;11.07;;;9.10;99.90;;;;;;5128145;27;20110;-83
2023/03/19 03:38:03;;;;;;;17.08;11.15;;;9.10;99.90;;;;;;5091196;27;20059;-83
2023/03/19 03:40:28;;;;;;;14.30;10.45;;;9.10;99.90;;;;;;5109036;27;20047;-83
2023/03/19 03:42:54;;;;;;;13.65;11.00;;;9.20;99.90;;;;;;5107625;27;20050;-83
2023/03/19 03:45:20;;;;;;;11.45;9.30;;;9.20;99.90;;;;;;5108108;27;20108;-83
2023/03/19 03:47:46;;;;;;;13.60;9.40;;;9.20;99.90;;;;;;5124480;27;20481;-83
2023/03/19 03:50:12;;;;;;;11.95;9.18;;;9.20;99.90;;;;;;5128716;27;20074;-82
2023/03/19 03:52:39;;;;;;;11.93;9.13;;;9.40;99.90;;;;;;5109878;27;20093;-82
2023/03/19 03:55:06;;;;;;;11.23;8.57;;;9.30;99.90;;;;;;5110509;27;20055;-82
2023/03/19 03:57:32;;;;;;;10.35;8.18;;;9.30;99.90;;;;;;5110114;27;20081;-82
2023/03/19 03:59:58;;;;;;;9.45;7.90;;;9.40;99.90;;;;;;5127733;27;20075;-83
2023/03/19 04:02:24;;;;;;;9.98;8.02;;;9.30;99.90;;;;;;5093153;27;20061;-82
2023/03/19 04:04:50;;;;;;;7.93;7.03;;;9.40;99.90;;;;;;5109167;27;20046;-82
2023/03/19 04:07:16;;;;;;;9.02;6.63;;;9.30;99.90;;;;;;5108998;27;20047;-82
2023/03/19 04:09:42;;;;;;;9.20;6.35;;;9.40;99.90;;;;;;5128381;27;20049;-82
2023/03/19 04:12:10;;;;;;;7.43;5.90;;;9.40;99.90;;;;;;5128335;27;20043;-83
2023/03/19 04:14:36;;;;;;;9.10;6.00;;;9.40;99.90;;;;;;5109330;27;20090;-83
2023/03/19 04:17:01;;;;;;;6.88;6.18;;;9.50;99.90;;;;;;5110288;27;20058;-83
2023/03/19 04:19:27;;;;;;;5.82;5.22;;;9.50;99.90;;;;;;5128397;27;20431;-82
2023/03/19 04:21:53;;;;;;;6.22;5.00;;;9.50;99.90;;;;;;5109878;27;20054;-82
2023/03/19 04:24:19;;;;;;;6.05;4.88;;;9.50;99.90;;;;;;5128362;27;20035;-82
2023/03/19 04:26:47;;;;;;;5.60;4.75;;;9.50;99.90;;;;;;5109085;28;20122;-82
2023/03/19 04:29:12;;;;;;;5.35;4.72;;;9.50;99.90;;;;;;5110083;27;20051;-82
2023/03/19 04:31:38;;;;;;;6.20;4.63;;;9.50;99.90;;;;;;5109458;27;20070;-83
2023/03/19 04:34:04;;;;;;;4.95;4.45;;;9.90;99.90;;;;;;5109483;28;20038;-83
2023/03/19 04:36:30;;;;;;;6.72;4.78;;;9.50;99.90;;;;;;5092018;28;20047;-82
2023/03/19 04:38:56;;;;;;;4.85;4.05;;;9.50;99.90;;;;;;5092043;28;20442;-82
2023/03/19 04:41:21;;;;;;;4.90;4.40;;;9.40;99.90;;;;;;5108979;28;20076;-82
2023/03/19 04:43:47;;;;;;;5.75;4.97;;;9.40;99.90;;;;;;5109445;28;20039;-82
2023/03/19 04:46:12;;;;;;;6.35;4.40;;;9.30;99.90;;;;;;5109653;28;20099;-82
2023/03/19 04:48:38;;;;;;;5.05;4.30;;;9.20;99.90;;;;;;5113244;27;20043;-82
2023/03/19 04:51:07;;;;;;;6.18;4.20;;;9.10;99.90;;;;;;5128616;27;20039;-83
2023/03/19 04:53:34;;;;;;;5.00;4.25;;;9.10;99.90;;;;;;5113830;27;20047;-83
2023/03/19 04:56:00;;;;;;;6.78;4.88;;;9.00;99.90;;;;;;5111613;27;21626;-82
2023/03/19 04:58:26;;;;;;;5.63;4.53;;;9.20;99.90;;;;;;5131265;27;20120;-82
2023/03/19 05:00:52;;;;;;;7.07;4.78;;;8.80;99.90;;;;;;5094618;27;20071;-83
2023/03/19 05:03:18;;;;;;;6.60;4.55;;;8.70;99.90;;;;;;5113359;27;20122;-82
2023/03/19 05:05:44;;;;;;;7.45;4.53;;;8.70;99.90;;;;;;5111372;27;20477;-82
2023/03/19 05:08:10;;;;;;;6.15;4.80;;;8.60;99.90;;;;;;5130101;27;20039;-83
2023/03/19 05:10:36;;;;;;;6.20;4.55;;;8.60;99.90;;;;;;5113631;27;20094;-83
2023/03/19 05:13:02;;;;;;;5.13;4.63;;;8.50;99.90;;;;;;5095779;27;20043;-82
2023/03/19 05:15:29;;;;;;;5.45;4.45;;;8.50;99.90;;;;;;5113202;27;20126;-83
2023/03/19 05:17:55;;;;;;;7.03;4.38;;;8.50;99.90;;;;;;5095932;27;20059;-83
2023/03/19 05:20:22;;;;;;;6.90;4.65;;;8.40;99.90;;;;;;5113089;27;20086;-83
2023/03/19 05:22:48;;;;;;;4.70;3.95;;;8.30;99.90;;;;;;5095966;27;20079;-83
2023/03/19 05:25:14;;;;;;;4.90;4.07;;;8.30;99.90;;;;;;5112823;27;20043;-83
2023/03/19 05:27:40;;;;;;;4.90;4.40;;;8.20;99.90;;;;;;5095390;27;20697;-83
2023/03/19 05:30:07;;;;;;;5.10;4.50;;;8.20;99.90;;;;;;5096061;27;20139;-82
2023/03/19 05:32:32;;;;;;;4.68;4.18;;;8.20;99.90;;;;;;5112833;27;20054;-83
2023/03/19 05:34:58;;;;;;;7.15;4.13;;;8.20;99.90;;;;;;5112998;27;20051;-82
2023/03/19 05:37:25;;;;;;;5.13;4.55;;;8.10;99.90;;;;;;5111569;27;20172;-83
2023/03/19 05:39:50;;;;;;;6.93;4.70;;;8.10;99.90;;;;;;5112847;27;20043;-83
2023/03/19 05:42:16;;;;;;;4.90;4.18;;;8.00;99.90;;;;;;5113455;27;20058;-83
2023/03/19 05:44:42;;;;;;;4.65;4.10;;;7.90;99.90;;;;;;5094282;27;20099;-82
2023/03/19 05:47:11;;;;;;;5.68;4.20;;;7.90;99.90;;;;;;5112453;27;20382;-83
2023/03/19 05:49:37;;;;;;;4.60;4.20;;;7.80;99.90;;;;;;5113081;27;20563;-82
2023/03/19 05:52:03;;;;;;;5.20;4.60;;;7.80;99.90;;;;;;5112007;27;20138;-82
2023/03/19 05:54:34;;;;;;;4.18;3.78;;;7.80;99.90;;;;;;5131237;27;20078;-82
2023/03/19 05:57:09;;;;;;;4.85;4.28;;;7.70;99.90;;;;;;5112424;27;20161;-83
2023/03/19 05:59:35;;;;;;;6.07;4.32;;;7.90;99.90;;;;;;5130098;27;20043;-82
2023/03/19 06:02:03;;;;;;;4.75;4.10;;;7.60;99.90;;;;;;5112100;27;20389;-83
2023/03/19 06:04:31;;;;;;;5.75;4.30;;;7.60;99.90;;;;;;5094951;27;20095;-83
2023/03/19 06:06:57;;;;;;;4.32;3.92;;;7.50;99.90;;;;;;5111233;27;20054;-82
2023/03/19 06:09:23;;;;;;;6.30;4.35;;;7.50;99.90;;;;;;5130274;27;20043;-83
2023/03/19 06:11:48;;;;;;;4.88;4.38;;;7.50;99.90;;;;;;5109705;27;20393;-83
2023/03/19 06:14:14;;;;;;;4.80;4.30;;;7.50;99.90;;;;;;5111572;27;20045;-82
2023/03/19 06:16:40;;;;;;;5.25;4.75;;;7.50;99.90;;;;;;5110628;27;20035;-82
2023/03/19 06:19:05;;;;;;;6.60;4.53;;;7.50;99.90;;;;;;5111748;27;20070;-82
2023/03/19 06:21:31;;;;;;;5.68;4.70;;;7.50;99.90;;;;;;5130342;27;20047;-82
2023/03/19 06:23:56;;;;;;;5.55;4.85;;;7.60;99.90;;;;;;5110662;27;20717;-83
2023/03/19 06:26:23;;;;;;;6.80;4.95;;;7.60;99.90;;;;;;5128696;27;20107;-83
2023/03/19 06:28:49;;;;;;;5.40;4.90;;;7.60;99.90;;;;;;5109719;27;20101;-82
2023/03/19 06:31:15;;;;;;;8.35;4.63;;;7.60;99.90;;;;;;5128830;27;20043;-82
2023/03/19 06:33:41;;;;;;;7.13;5.05;;;7.70;99.90;;;;;;5128695;27;20114;-82
2023/03/19 06:36:07;;;;;;;8.15;5.47;;;7.70;99.90;;;;;;5128473;27;20480;-82
2023/03/19 06:38:35;;;;;;;7.90;6.38;;;7.80;99.90;;;;;;5111422;27;20556;-83
2023/03/19 06:41:01;;;;;;;8.13;6.53;;;7.90;99.90;;;;;;5107677;27;20043;-82
2023/03/19 06:43:27;;;;;;;25.65;18.55;;;7.80;99.90;;;;;;5094156;27;20504;-82
2023/03/19 06:45:52;;;;;;;39.45;25.85;;;7.80;99.90;;;;;;5102648;28;20081;-83
2023/03/19 06:48:18;;;;;;;46.35;29.65;;;7.80;99.90;;;;;;5095587;27;20545;-84
2023/03/19 06:50:47;;;;;;;24.10;16.95;;;7.80;99.90;;;;;;5109936;27;20055;-83
2023/03/19 06:53:13;;;;;;;18.75;13.40;;;7.70;99.90;;;;;;5105524;27;20039;-84
2023/03/19 06:55:39;;;;;;;9.85;8.10;;;7.70;99.90;;;;;;5095501;28;20048;-83
2023/03/19 06:58:05;;;;;;;13.40;8.90;;;7.60;99.90;;;;;;5123216;27;20138;-83
2023/03/19 07:00:32;;;;;;;11.82;9.15;;;7.70;99.90;;;;;;5127864;27;20549;-84
2023/03/19 07:02:58;;;;;;;13.52;8.93;;;7.60;99.90;;;;;;5129180;27;20120;-83
2023/03/19 07:05:24;;;;;;;11.07;7.90;;;7.60;99.90;;;;;;5110896;27;20489;-82
2023/03/19 07:07:50;;;;;;;9.45;7.97;;;7.70;99.90;;;;;;5128223;27;20088;-81
2023/03/19 07:10:20;;;;;;;10.05;8.07;;;7.80;99.90;;;;;;5127746;27;20118;-79
2023/03/19 07:12:45;;;;;;;10.48;7.82;;;7.80;99.90;;;;;;5128611;27;20059;-79
2023/03/19 07:15:13;;;;;;;8.63;7.40;;;7.90;99.90;;;;;;5110921;27;20042;-79
2023/03/19 07:17:39;;;;;;;9.30;7.05;;;8.00;99.90;;;;;;5111357;27;20099;-80
2023/03/19 07:20:05;;;;;;;13.57;7.53;;;8.10;99.90;;;;;;5110875;27;20050;-79
2023/03/19 07:22:31;;;;;;;11.50;8.40;;;8.20;99.90;;;;;;5110487;27;20082;-79
2023/03/19 07:24:56;;;;;;;11.20;8.93;;;8.30;99.90;;;;;;5129407;27;20096;-79
2023/03/19 07:27:22;;;;;;;17.58;11.88;;;8.50;99.90;;;;;;5127065;27;20397;-79
2023/03/19 07:29:47;;;;;;;15.18;9.95;;;8.60;99.90;;;;;;5110054;27;20105;-78
2023/03/19 07:32:13;;;;;;;17.65;12.68;;;8.80;99.90;;;;;;5109813;27;20039;-79
2023/03/19 07:34:39;;;;;;;21.52;12.93;;;8.90;99.90;;;;;;5110328;27;20049;-79
2023/03/19 07:37:05;;;;;;;15.98;10.20;;;9.00;99.90;;;;;;5128723;27;20646;-80
2023/03/19 07:39:31;;;;;;;18.45;13.05;;;9.10;99.90;;;;;;5127956;27;20130;-78
2023/03/19 07:41:56;;;;;;;19.80;13.02;;;9.10;99.90;;;;;;5127107;27;20197;-80
2023/03/19 07:44:22;;;;;;;20.58;13.20;;;9.20;99.90;;;;;;5110161;27;20535;-79
2023/03/19 07:46:47;;;;;;;20.23;12.55;;;9.30;99.90;;;;;;5127578;27;20100;-80
2023/03/19 07:49:13;;;;;;;21.10;12.70;;;9.40;99.90;;;;;;5128841;27;20031;-80
2023/03/19 07:51:40;;;;;;;20.10;12.60;;;9.50;99.90;;;;;;5127708;27;20039;-80
2023/03/19 07:54:06;;;;;;;24.15;14.13;;;9.60;99.90;;;;;;5128846;27;20126;-80
2023/03/19 07:56:31;;;;;;;19.13;12.15;;;9.70;99.90;;;;;;5110278;27;20088;-80
2023/03/19 07:58:58;;;;;;;16.73;12.00;;;9.80;99.90;;;;;;5128417;27;20047;-79
2023/03/19 08:01:24;;;;;;;18.67;11.55;;;9.90;99.90;;;;;;5109950;27;20102;-80
2023/03/19 08:03:50;;;;;;;18.42;11.45;;;10.00;99.90;;;;;;5128093;27;20209;-80
2023/03/19 08:06:15;;;;;;;14.80;11.05;;;10.10;99.90;;;;;;5128629;27;20489;-80
2023/03/19 08:08:41;;;;;;;15.00;11.02;;;10.20;99.90;;;;;;5110154;28;20127;-80
2023/03/19 08:11:07;;;;;;;17.20;11.63;;;10.40;99.90;;;;;;5109677;27;20055;-79
2023/03/19 08:13:33;;;;;;;14.10;10.60;;;10.50;99.90;;;;;;5091786;27;20054;-81
2023/03/19 08:15:59;;;;;;;14.27;10.95;;;10.60;99.90;;;;;;5092553;27;20496;-80
2023/03/19 08:18:25;;;;;;;12.27;10.35;;;10.70;99.90;;;;;;5109560;27;20039;-80
2023/03/19 08:20:51;;;;;;;14.77;10.77;;;10.90;99.90;;;;;;5109144;28;20043;-80
2023/03/19 08:23:17;;;;;;;14.35;11.30;;;11.00;99.90;;;;;;5128672;27;20043;-79
2023/03/19 08:25:42;;;;;;;15.98;10.82;;;11.10;99.90;;;;;;5109225;28;20155;-79
2023/03/19 08:28:08;;;;;;;14.32;10.77;;;11.30;99.90;;;;;;5107090;28;20042;-79
2023/03/19 08:30:38;;;;;;;11.50;9.82;;;11.50;99.90;;;;;;5106629;28;20063;-79
2023/03/19 08:33:04;;;;;;;11.45;10.25;;;11.70;99.90;;;;;;5109293;28;20161;-79
2023/03/19 08:35:30;;;;;;;11.45;9.20;;;11.90;99.90;;;;;;5125827;27;20476;-79
2023/03/19 08:37:55;;;;;;;10.90;9.50;;;11.90;99.90;;;;;;5107982;28;20154;-79
2023/03/19 08:40:22;;;;;;;14.00;10.05;;;11.80;99.90;;;;;;5106651;28;20047;-79
2023/03/19 08:42:48;;;;;;;12.65;10.48;;;11.70;99.90;;;;;;5106013;28;20027;-79
2023/03/19 08:45:15;;;;;;;13.63;10.10;;;11.40;99.90;;;;;;5106223;28;20396;-79
2023/03/19 08:47:41;;;;;;;11.63;10.32;;;11.60;99.90;;;;;;5106373;28;20044;-79
2023/03/19 08:50:07;;;;;;;11.48;10.02;;;11.40;99.90;;;;;;5107446;28;20502;-79
2023/03/19 08:52:33;;;;;;;13.98;10.13;;;11.40;99.90;;;;;;5109164;28;20043;-79
2023/03/19 08:54:59;;;;;;;11.68;9.88;;;11.50;99.90;;;;;;5109640;28;20043;-78
2023/03/19 08:57:25;;;;;;;10.05;8.90;;;11.50;99.90;;;;;;5127444;28;20043;-79
2023/03/19 08:59:53;;;;;;;12.15;9.07;;;11.50;99.90;;;;;;5109395;28;20039;-79
2023/03/19 09:02:19;;;;;;;11.02;9.30;;;11.60;99.90;;;;;;5108600;28;20081;-78
2023/03/19 09:04:45;;;;;;;9.05;7.80;;;11.70;99.90;;;;;;5109210;28;20488;-78
2023/03/19 09:07:14;;;;;;;9.60;7.65;;;11.80;99.90;;;;;;5107924;28;20042;-78
2023/03/19 09:09:40;;;;;;;9.90;7.82;;;11.80;99.90;;;;;;5116212;28;20130;-79
2023/03/19 09:12:07;;;;;;;9.85;7.80;;;11.80;99.90;;;;;;5107413;28;20127;-78
2023/03/19 09:14:40;;;;;;;9.20;7.68;;;11.80;99.90;;;;;;5123993;28;20428;-78
2023/03/19 09:17:06;;;;;;;8.65;7.22;;;11.70;99.90;;;;;;5106288;28;20054;-78
2023/03/19 09:19:32;;;;;;;8.57;7.65;;;11.70;99.90;;;;;;5109075;28;20036;-79
2023/03/19 09:21:58;;;;;;;7.32;6.63;;;11.60;99.90;;;;;;5108661;28;20043;-78
2023/03/19 09:24:25;;;;;;;9.38;7.10;;;11.60;99.90;;;;;;5108791;28;20457;-79
2023/03/19 09:26:51;;;;;;;8.88;6.65;;;11.70;99.90;;;;;;5091775;28;20367;-78
2023/03/19 09:29:16;;;;;;;7.93;6.88;;;11.80;99.90;;;;;;5108257;28;20162;-78
2023/03/19 09:31:42;;;;;;;8.45;7.05;;;11.90;99.90;;;;;;5092238;28;20047;-78
2023/03/19 09:34:08;;;;;;;9.63;7.88;;;11.90;99.90;;;;;;5094125;27;20054;-79
2023/03/19 09:36:37;;;;;;;9.13;7.50;;;12.00;99.90;;;;;;5112241;27;20089;-78
2023/03/19 09:39:04;;;;;;;9.85;7.63;;;12.20;99.90;;;;;;5131505;27;20050;-78
2023/03/19 09:41:48;;;;;;;9.95;7.80;;;12.40;99.90;;;;;;5115861;27;20043;-80
2023/03/19 09:44:25;;;;;;;9.68;7.82;;;12.40;99.90;;;;;;5095364;27;20114;-79
2023/03/19 09:47:01;;;;;;;9.60;7.68;;;12.50;99.90;;;;;;5111917;27;20552;-79
2023/03/19 09:49:29;;;;;;;8.70;7.65;;;12.50;99.90;;;;;;5095889;27;20397;-80
2023/03/19 09:52:09;;;;;;;9.75;8.25;;;12.60;99.90;;;;;;5095048;27;20054;-79
2023/03/19 09:54:43;;;;;;;11.45;8.63;;;12.60;99.90;;;;;;5112382;27;20047;-79
2023/03/19 09:57:10;;;;;;;10.55;8.75;;;12.60;99.90;;;;;;5103103;28;20181;-79
2023/03/19 09:59:37;;;;;;;8.40;7.60;;;12.70;99.90;;;;;;5091935;28;20056;-79
2023/03/19 10:02:44;;;;;;;9.07;8.15;;;12.70;99.90;;;;;;5073683;28;20188;-79
2023/03/19 10:05:31;;;;;;;9.65;8.63;;;12.60;99.90;;;;;;5090445;28;20067;-79
2023/03/19 10:08:14;;;;;;;8.90;7.82;;;12.70;99.90;;;;;;5090345;28;20054;-79
2023/03/19 10:10:54;;;;;;;9.93;7.82;;;12.70;99.90;;;;;;5090965;28;20122;-79
2023/03/19 10:13:45;;;;;;;12.20;8.50;;;12.70;99.90;;;;;;5090659;28;20134;-79
2023/03/19 10:16:24;;;;;;;10.10;7.95;;;12.70;99.90;;;;;;5091881;28;20096;-79
2023/03/19 10:18:53;;;;;;;10.07;8.75;;;12.70;99.90;;;;;;5092530;28;20150;-79
2023/03/19 10:21:26;;;;;;;10.13;9.13;;;12.70;99.90;;;;;;5110203;28;20051;-78
2023/03/19 10:24:06;;;;;;;10.20;9.10;;;12.80;99.90;;;;;;5109791;28;20508;-79
2023/03/19 10:26:36;;;;;;;11.15;9.20;;;12.80;99.90;;;;;;5110745;28;20044;-79
2023/03/19 10:29:13;;;;;;;10.77;8.98;;;12.80;99.90;;;;;;5075623;28;20044;-82
2023/03/19 10:31:39;;;;;;;10.02;8.85;;;12.80;99.90;;;;;;5074791;28;20052;-81
2023/03/19 10:34:10;;;;;;;11.57;9.13;;;12.70;99.90;;;;;;5103971;27;20051;-80
2023/03/19 10:36:37;;;;;;;11.95;9.52;;;12.90;99.90;;;;;;5091101;28;20101;-80
2023/03/19 10:39:06;;;;;;;12.75;9.63;;;13.00;99.90;;;;;;5087458;28;20087;-80
2023/03/19 10:41:42;;;;;;;10.40;9.30;;;13.00;99.90;;;;;;5088035;28;20448;-79
2023/03/19 10:44:33;;;;;;;10.25;9.13;;;13.10;99.90;;;;;;5086062;28;20461;-80
2023/03/19 10:47:12;;;;;;;10.32;9.00;;;13.30;99.90;;;;;;5087107;28;20048;-80
2023/03/19 10:49:37;;;;;;;11.63;9.55;;;13.20;99.90;;;;;;5087614;28;20048;-80
2023/03/19 10:52:04;;;;;;;10.15;9.02;;;13.40;99.90;;;;;;5087474;28;20044;-80
2023/03/19 10:54:30;;;;;;;10.38;9.38;;;13.30;99.90;;;;;;5087702;28;20454;-80
2023/03/19 10:56:58;;;;;;;11.20;10.10;;;13.30;99.90;;;;;;5087280;28;20123;-80
2023/03/19 10:59:46;;;;;;;11.73;9.90;;;13.30;99.90;;;;;;5088094;28;20040;-80
2023/03/19 11:02:22;;;;;;;11.55;10.13;;;13.40;99.90;;;;;;5086443;28;20085;-80
2023/03/19 11:05:04;;;;;;;13.48;10.13;;;13.50;99.90;;;;;;5087482;28;20040;-80
2023/03/19 11:07:31;;;;;;;11.07;9.95;;;13.50;99.90;;;;;;5086303;28;20485;-80
2023/03/19 11:09:57;;;;;;;11.45;10.25;;;13.40;99.90;;;;;;5088877;28;20040;-80
2023/03/19 11:12:36;;;;;;;12.07;9.68;;;13.50;99.90;;;;;;5087593;28;20058;-80
2023/03/19 11:15:04;;;;;;;11.82;10.00;;;13.40;99.90;;;;;;5086520;28;20486;-80
2023/03/19 11:17:49;;;;;;;12.30;10.57;;;13.50;99.90;;;;;;5087451;28;20406;-81
2023/03/19 11:20:18;;;;;;;10.85;9.68;;;13.60;99.90;;;;;;5082344;28;20052;-82
2023/03/19 11:22:43;;;;;;;11.30;10.07;;;13.70;99.90;;;;;;5088004;28;20047;-80
2023/03/19 11:25:29;;;;;;;10.75;9.65;;;13.70;99.90;;;;;;5088093;28;20093;-79
2023/03/19 11:28:08;;;;;;;11.25;10.05;;;13.60;99.90;;;;;;5079121;28;20474;-82
2023/03/19 11:30:59;;;;;;;12.57;10.15;;;13.40;99.90;;;;;;5082274;28;20127;-81
2023/03/19 11:33:54;;;;;;;11.85;10.30;;;13.30;99.90;;;;;;5067279;28;20045;-81
2023/03/19 11:36:48;;;;;;;10.85;8.98;;;13.30;99.90;;;;;;5107959;27;20051;-80
2023/03/19 11:39:34;;;;;;;11.60;9.50;;;13.30;99.90;;;;;;5109086;27;20059;-79
2023/03/19 11:42:10;;;;;;;9.88;8.80;;;13.80;99.90;;;;;;5108958;27;20053;-79
2023/03/19 11:45:01;;;;;;;10.45;9.23;;;13.50;99.90;;;;;;5128040;27;20157;-80
2023/03/19 11:47:44;;;;;;;12.80;10.10;;;13.60;99.90;;;;;;5108874;27;20046;-80
2023/03/19 11:50:24;;;;;;;;;;;13.50;99.90;;;;;;5129595;27;20513;-81
2023/03/19 11:53:13;;;;;;;11.43;9.95;;;13.60;99.90;;;;;;5087122;28;19919;-81
2023/03/19 11:55:47;;;;;;;11.15;9.13;;;13.70;99.90;;;;;;5089031;28;20504;-81
2023/03/19 11:58:31;;;;;;;11.32;9.43;;;13.90;99.90;;;;;;5107999;28;20496;-81
2023/03/19 12:01:30;;;;;;;11.15;9.32;;;14.00;99.90;;;;;;5127245;27;20065;-81
2023/03/19 12:04:06;;;;;;;10.90;9.30;;;14.00;99.90;;;;;;5100814;27;20470;-81
2023/03/19 12:06:59;;;;;;;10.52;9.43;;;14.20;99.90;;;;;;5092580;27;20513;-80
2023/03/19 12:09:31;;;;;;;12.07;10.63;;;14.10;99.90;;;;;;5109432;27;20118;-83
2023/03/19 12:12:23;;;;;;;12.65;10.23;;;14.20;99.90;;;;;;5110012;27;20041;-84
2023/03/19 12:15:10;;;;;;;10.38;9.27;;;14.30;99.90;;;;;;5090577;27;20043;-83
2023/03/19 12:17:59;;;;;;;10.20;9.10;;;14.30;99.90;;;;;;5092336;27;20096;-83
2023/03/19 12:20:33;;;;;;;10.57;9.55;;;14.20;99.90;;;;;;5109279;27;20039;-83
2023/03/19 12:23:05;;;;;;;9.73;8.65;;;14.20;99.90;;;;;;5109975;28;20071;-84
2023/03/19 12:25:44;;;;;;;10.00;9.00;;;14.10;99.90;;;;;;5092636;28;20043;-84
2023/03/19 12:28:18;;;;;;;11.43;9.25;;;14.20;99.90;;;;;;5109517;28;20078;-83
2023/03/19 12:30:58;;;;;;;11.80;9.75;;;14.20;99.90;;;;;;5110413;27;20073;-83
2023/03/19 12:33:35;;;;;;;10.18;8.73;;;14.50;99.90;;;;;;5125129;27;20079;-83
2023/03/19 12:36:03;;;;;;;10.43;9.35;;;14.40;99.90;;;;;;5117621;27;20050;-83
2023/03/19 12:38:40;;;;;;;11.85;9.60;;;14.60;99.90;;;;;;5088281;28;20054;-84
2023/03/19 12:41:13;;;;;;;12.65;10.10;;;14.60;99.90;;;;;;5089444;28;20047;-84
2023/03/19 12:44:01;;;;;;;10.18;9.18;;;14.60;99.90;;;;;;5071587;28;20394;-84
2023/03/19 12:46:38;;;;;;;11.15;9.30;;;14.70;99.90;;;;;;5089091;28;20070;-83
2023/03/19 12:49:30;;;;;;;11.75;9.68;;;14.70;99.90;;;;;;5105588;28;20048;-83
2023/03/19 12:52:07;;;;;;;10.43;9.43;;;14.70;99.90;;;;;;5096469;28;20047;-83
2023/03/19 12:54:37;;;;;;;11.07;9.18;;;14.70;99.90;;;;;;5106635;28;20042;-83